Погода Испания Барселона


Барселона /Испания - метеоусловия
Февраль 17, 2017 – 23:17
Красивый вид на знаменитый

Исходный текст погоды публикуется в том виде, как они передан метеослужбой аэропорта во всемирную сеть обмена метеоинформацией. Раскодирование (русский текст) прогнозов погоды произведено на сервере Метеоцентр. В ряде случаев помимо прогноза погоды передаётся и сообщение о фактической погоде аэропорта (время, как и в прогнозах - всемирное, для получения московского зимнего времени нужно прибавить 3 часа).

Внимание! Данная информация предоставляется исключительно для личного использования в информационных и некоммерческих целях, и НЕ может быть использована в предполётной подготовке экипажей воздушных судов.

METAR LEBL 051500Z 19012KT 9999 FEW020 26/19 Q1019 NOSIG

TAF LEBL 051100Z 0512/0612 18010KT 9999 SCT025 TX28/0612Z TN23/0606Z
BECMG 0519/0522 VRB03KT
PROB30
TEMPO 0600/0607 BKN014
BECMG 0606/0608 10010KT
BECMG 0610/0612 17010KT

Фактическая погода LEBL 051500Z
ветер 190 - 6 м/с вид. 10 км обл. отдельная 600 м темп-ра 26 точка росы 19 Pмин 1019 гПа
в ближайшие 2 часа без изменений

Прогноз погоды LEBL 051100Z 0512/0612
ветер 180 - 5 м/с вид. 10 км обл. разбросанная 750 м TX28/0612Z TN23/0606Z
изменение 0519/0522
ветер неустойчивый - 2 м/с

вероятность 30%
временами 0600 /0607 обл. значительная 420 м

Source: meteocenter.net
Что еще почитать?

Похожие публикации